Wednesday, September 17, 2014
11:36 UTC
  |  Log In   |  Register Free
Airport Search:

Mount Sterling-Montgomery County Airport
(KIOB)

Mount Sterling-Montgomery County Airport Diagram
No Airport Diagram Available

FAA data valid effective July 24, 2014 until September 18, 2014 (unless otherwise noted).

 
 
 
 
 
 
 
 
 
 
 
 
 
 

Current Aviation Weather for Mount Sterling-Montgomery County Airport (KIOB)

The most recent METAR observation for KIOB was updated at: 1113
METAR Summary (Translated METAR)
KIOB
171055Z AUTO 00000KT 5SM BR BKN037 09/09 A3008 RMK AO2
KLEX
171054Z 10004KT 10SM CLR 12/09 A3006 RMK AO2 SLP175 T01220089
(29.6 nm SW from KIOB)
KFGX
171055Z AUTO 00000KT 3SM BR OVC034 08/08 A3008 RMK AO2 T00770077
(31.1 nm NE from KIOB)
TAF Summary (Translated TAF)
KLEX
(29.6 nm SW from KIOB)
170857Z 1709/1806 04005KT P6SM BKN030 TEMPO 1709/1713 4SM BR BKN020 FM171400 VRB03KT P6SM SCT040 SCT150
  Airport Weather Conditions for KIOB

 Current Weather at IOB
48° F
Overcast
North winds at 0.0 mph
IOB NOAA Radar

Pressure: 30.08 in
Humidity: 100%
Wind: Calm
Dew Point: 48.2°F
Visibility: 7.00 mi


Airport Weather Forecast for KIOB

Translated METAR and TAF for KIOB
Translated METAR for KIOB (1130 UTC 17 September 2014)
found at http://aviationweather.gov/adds/metars/
 
METAR text: KIOB 171115Z AUTO 00000KT 4SM BR OVC037 08/08 A3008 RMK AO2
Conditions at: KIOB (MOUNT STERLING , KY, US) observed 1115 UTC 17 September 2014
Temperature: 8.0°C (46°F)
Dewpoint: 8.0°C (46°F) [RH = 100%]
Pressure (altimeter): 30.08 inches Hg (1018.7 mb)
Winds: calm
Visibility: 4 miles (6 km)
Ceiling: 3700 feet AGL
Clouds: overcast cloud deck at 3700 feet AGL
Weather: BR  (mist)
Translated TAF for KIOB

There is no translated TAF available for this airport

Find All Airport Services Find A Hotel Find A Rental Car Find A Golf Course Find A Restaurant $100 Hamburger



FBO's on the Field
FBO Company Facility Photos Services Transportation Aviation Fuel Prices: Prices include tax
Catering Weather Repair Courtesy Rental Type 100LL JetA JetA+ MOGAS 8087
 
Kentucky Airmotive Inc

This FBO has not yet been rated
FS:Shell
Last Updated: Aug-12
Login to update fuel prices
SS:
Contact Kentucky Airmotive IncMore FBO Information
 
Add another FBO Facility Photos Catering Weather Repair Courtesy Rental Type 100LL JetA JetA+ MOGAS 8087
Services Transportation Aviation Fuel Prices: Prices include tax


model-print
model-print
model-print
model-print